La Verne

Airport
ICAO code: 
KPOC
Summary
ICAO Region: 
NAM
Territory: 
Location: 
La Verne, California,
Coordinates: 
Aerial View: 
34° 5' 29.232" N, 117° 46' 54.141" W
Metar
Observation
KPOC 021447Z 00000KT 10SM CLR 09/02 A3012
Station
La Verne / Brackett
Date/Time
2021-12-02 14:47:00
Wind direction
Wind speed
00 kts
Lowest cloud amount
n/a
Temperature
9°C
Dew point
2°C
Humidity
61%
Weather condition
n/a

Description

La Verne Airport, also known as Brackett Field, is a public airport located 2 km southwest of La Verne, in Los Angeles County, California, USA.

Climatology

Mediterranean climate or Dry-Summer Subtropical (Köppen climate classification Csa) - Summers are warm to hot and dry. Winters are mild and somewhat rainy. Spring and autumn bring mild days with cool evenings and are generally dry.

Runways

Designator Length Width Surface Rops
08L/26R 1116 23 ASP Yes/Yes
08R/26L 1475 23 ASP Yes/Yes
Airport map: 
Aerial View: 

SKYbrary Partners:

Safety knowledge contributed by: